createdAt,value
2023-05-11T00:00:39.477Z,34.77
2023-05-11T00:03:06.520Z,35.33
2023-05-11T00:05:33.240Z,37.07
2023-05-11T00:07:59.829Z,39.10
2023-05-11T00:10:27.471Z,37.63
2023-05-11T00:12:54.017Z,38.00
2023-05-11T00:15:20.707Z,37.27
2023-05-11T00:17:47.231Z,41.10
2023-05-11T00:20:13.767Z,39.30
2023-05-11T00:22:41.196Z,36.83
2023-05-11T00:25:08.877Z,41.17
2023-05-11T00:27:35.542Z,43.03
2023-05-11T00:30:02.086Z,39.73
2023-05-11T00:32:28.651Z,41.03
2023-05-11T00:34:55.182Z,35.70
2023-05-11T00:37:21.772Z,44.33
2023-05-11T00:39:48.356Z,38.93
2023-05-11T00:42:14.888Z,42.80
2023-05-11T00:44:41.388Z,39.37
2023-05-11T00:47:08.026Z,38.50
2023-05-11T00:49:34.992Z,41.77
2023-05-11T00:52:02.941Z,40.93
2023-05-11T00:54:30.683Z,39.97
2023-05-11T00:56:57.398Z,34.57
2023-05-11T00:59:23.977Z,42.43
2023-05-11T01:01:50.783Z,37.00
2023-05-11T01:04:17.587Z,41.43
2023-05-11T01:07:06.526Z,39.47
2023-05-11T01:09:44.460Z,42.20
2023-05-11T01:12:26.429Z,38.13
2023-05-11T01:15:10.124Z,42.80
2023-05-11T01:18:07.198Z,40.50
2023-05-11T01:20:34.694Z,41.63
2023-05-11T01:23:39.116Z,47.10
2023-05-11T01:26:33.322Z,39.43
2023-05-11T01:29:16.537Z,41.80
2023-05-11T01:31:47.272Z,42.27
2023-05-11T01:34:19.017Z,37.27
2023-05-11T01:36:53.132Z,42.80
2023-05-11T01:39:25.186Z,44.07
2023-05-11T01:41:54.017Z,40.87
2023-05-11T01:44:22.467Z,44.30
2023-05-11T01:46:49.879Z,49.83
2023-05-11T01:49:18.916Z,41.03
2023-05-11T01:51:49.360Z,50.60
2023-05-11T01:54:19.289Z,49.73
2023-05-11T01:56:47.184Z,48.13
2023-05-11T01:59:14.524Z,51.77
2023-05-11T02:01:41.538Z,49.60
2023-05-11T02:04:10.899Z,45.37
2023-05-11T02:06:39.209Z,50.10
2023-05-11T02:09:09.507Z,58.17
2023-05-11T02:11:38.170Z,47.27
2023-05-11T02:14:06.709Z,50.07
2023-05-11T02:16:35.027Z,50.03
2023-05-11T02:19:02.223Z,57.00
2023-05-11T02:21:31.719Z,55.60
2023-05-11T02:24:00.233Z,50.00
2023-05-11T02:26:26.893Z,57.63
2023-05-11T02:28:53.436Z,52.90
2023-05-11T02:31:25.494Z,56.27
2023-05-11T02:33:55.554Z,50.20
2023-05-11T02:36:24.918Z,50.47
2023-05-11T02:38:58.337Z,55.10
2023-05-11T02:41:28.486Z,53.77
2023-05-11T02:43:58.474Z,49.10
2023-05-11T02:46:32.853Z,48.80
2023-05-11T02:49:01.046Z,48.13
2023-05-11T02:51:34.448Z,49.83
2023-05-11T02:54:02.959Z,55.53
2023-05-11T02:56:30.018Z,52.47
2023-05-11T02:58:56.581Z,55.70
2023-05-11T03:01:24.170Z,61.07
2023-05-11T03:03:51.076Z,54.10
2023-05-11T03:06:17.635Z,53.07
2023-05-11T03:08:44.199Z,55.23
2023-05-11T03:11:12.424Z,60.13
2023-05-11T03:13:39.349Z,51.90
2023-05-11T03:16:06.754Z,55.80
2023-05-11T03:18:34.313Z,59.50
2023-05-11T03:21:01.814Z,50.87
2023-05-11T03:23:29.927Z,56.00
2023-05-11T03:25:58.714Z,58.57
2023-05-11T03:28:26.936Z,54.67
2023-05-11T03:30:54.355Z,54.07
2023-05-11T03:33:21.013Z,60.37
2023-05-11T03:35:49.773Z,58.97
2023-05-11T03:38:16.672Z,54.30
2023-05-11T03:40:44.486Z,62.00
2023-05-11T03:43:14.703Z,51.67
2023-05-11T03:45:43.356Z,61.33
2023-05-11T03:48:11.788Z,57.90
2023-05-11T03:50:39.221Z,61.87
2023-05-11T03:53:06.256Z,64.30
2023-05-11T03:55:33.189Z,55.53
2023-05-11T03:58:00.485Z,58.73
2023-05-11T04:00:28.108Z,63.80
2023-05-11T04:02:54.885Z,61.53
2023-05-11T04:05:21.491Z,64.17
2023-05-11T04:07:48.031Z,65.50
2023-05-11T04:10:14.550Z,68.70
2023-05-11T04:12:41.128Z,62.40
2023-05-11T04:15:08.014Z,60.27
2023-05-11T04:17:34.645Z,65.47
2023-05-11T04:20:01.229Z,62.53
2023-05-11T04:22:27.734Z,63.40
2023-05-11T04:24:54.261Z,62.93
2023-05-11T04:27:20.748Z,65.43
2023-05-11T04:29:48.472Z,67.53
2023-05-11T04:32:15.791Z,61.37
2023-05-11T04:34:42.416Z,67.40
2023-05-11T04:37:09.058Z,69.27
2023-05-11T04:39:35.568Z,73.57
2023-05-11T04:42:02.171Z,88.03
2023-05-11T04:44:28.822Z,66.60
2023-05-11T04:46:56.371Z,64.07
2023-05-11T04:49:23.116Z,61.30
2023-05-11T04:51:49.637Z,66.10
2023-05-11T04:54:16.803Z,59.17
2023-05-11T04:56:43.497Z,53.47
2023-05-11T04:59:10.530Z,55.23
2023-05-11T05:01:37.153Z,49.13
2023-05-11T05:04:03.830Z,51.70
2023-05-11T05:06:32.003Z,52.43
2023-05-11T05:08:58.607Z,51.03
2023-05-11T05:11:25.221Z,45.80
2023-05-11T05:13:51.730Z,50.50
2023-05-11T05:16:18.278Z,48.67
2023-05-11T05:18:44.886Z,49.27
2023-05-11T05:21:11.461Z,46.03
2023-05-11T05:23:37.982Z,51.70
2023-05-11T05:26:04.647Z,46.17
2023-05-11T05:28:31.214Z,53.03
2023-05-11T05:30:58.262Z,41.13
2023-05-11T05:33:24.856Z,42.57
2023-05-11T05:35:51.371Z,40.63
2023-05-11T05:38:17.858Z,36.63
2023-05-11T05:40:44.373Z,38.83
2023-05-11T05:43:11.398Z,34.20
2023-05-11T05:45:38.181Z,34.63
2023-05-11T05:48:06.065Z,34.63
2023-05-11T05:50:33.057Z,37.70
2023-05-11T05:52:59.561Z,32.17
2023-05-11T05:55:26.263Z,38.20
2023-05-11T05:57:52.900Z,31.43
2023-05-11T06:00:19.906Z,40.50
2023-05-11T06:02:46.819Z,34.93
2023-05-11T06:05:13.359Z,38.53
2023-05-11T06:07:39.910Z,38.77
2023-05-11T06:10:06.709Z,39.80
2023-05-11T06:12:33.274Z,39.23
2023-05-11T06:14:59.801Z,42.63
2023-05-11T06:17:28.162Z,37.67
2023-05-11T06:19:54.758Z,35.87
2023-05-11T06:22:21.254Z,38.20
2023-05-11T06:24:47.781Z,34.90
2023-05-11T06:27:16.024Z,39.33
2023-05-11T06:29:44.634Z,33.83
2023-05-11T06:32:11.218Z,36.30
2023-05-11T06:34:39.215Z,31.93
2023-05-11T06:37:05.921Z,41.43
2023-05-11T06:39:35.935Z,38.87
2023-05-11T06:42:05.088Z,37.00
2023-05-11T06:44:34.117Z,39.33
2023-05-11T06:47:01.001Z,35.23
2023-05-11T06:49:27.531Z,35.50
2023-05-11T06:51:54.021Z,41.47
2023-05-11T06:54:20.575Z,33.67
2023-05-11T06:56:47.090Z,33.57
2023-05-11T06:59:13.669Z,30.80
2023-05-11T07:01:40.303Z,31.80
2023-05-11T07:04:06.885Z,28.87
2023-05-11T07:06:33.738Z,33.67
2023-05-11T07:09:00.400Z,29.77
2023-05-11T07:11:27.621Z,32.57
2023-05-11T07:13:54.177Z,24.57
2023-05-11T07:16:20.862Z,25.33
2023-05-11T07:18:47.451Z,24.27
2023-05-11T07:21:14.057Z,25.60
2023-05-11T07:23:40.654Z,30.33
2023-05-11T07:26:09.075Z,23.67
2023-05-11T07:28:38.762Z,25.07
2023-05-11T07:31:05.768Z,28.40
2023-05-11T07:33:34.451Z,25.67
2023-05-11T07:36:00.932Z,21.53
2023-05-11T07:38:27.499Z,26.33
2023-05-11T07:40:54.616Z,25.80
2023-05-11T07:43:21.242Z,23.10
2023-05-11T07:45:47.781Z,25.67
2023-05-11T07:48:14.346Z,24.03
2023-05-11T07:50:42.305Z,24.47
2023-05-11T07:53:09.384Z,22.37
2023-05-11T07:55:35.963Z,22.37
2023-05-11T07:58:02.477Z,23.07
2023-05-11T08:00:29.085Z,23.87
2023-05-11T08:02:56.168Z,23.50
2023-05-11T08:05:22.921Z,23.00
2023-05-11T08:07:49.537Z,19.93
2023-05-11T08:10:16.118Z,25.93
2023-05-11T08:12:42.956Z,24.03
2023-05-11T08:15:09.982Z,20.97
2023-05-11T08:17:37.236Z,25.40
2023-05-11T08:20:06.367Z,24.47
2023-05-11T08:22:32.909Z,24.90
2023-05-11T08:24:59.410Z,20.67
2023-05-11T08:27:25.969Z,28.43
2023-05-11T08:29:52.483Z,26.10
2023-05-11T08:32:19.038Z,24.90
2023-05-11T08:34:45.752Z,27.27
2023-05-11T08:37:12.399Z,25.17
2023-05-11T08:39:47.393Z,26.40
2023-05-11T08:42:16.502Z,22.93
2023-05-11T08:44:44.512Z,30.50
2023-05-11T08:47:22.785Z,22.67
2023-05-11T08:49:52.683Z,25.37
2023-05-11T08:52:19.587Z,24.60
2023-05-11T08:54:46.830Z,22.87
2023-05-11T08:57:14.372Z,25.73
2023-05-11T08:59:44.264Z,26.43
2023-05-11T09:02:18.803Z,24.17
2023-05-11T09:04:48.590Z,24.53
2023-05-11T09:07:17.378Z,27.63
2023-05-11T09:09:49.429Z,27.13
2023-05-11T09:12:16.953Z,22.23
2023-05-11T09:14:44.047Z,25.60
2023-05-11T09:17:10.948Z,28.20
2023-05-11T09:19:38.383Z,27.87
2023-05-11T09:22:06.593Z,30.27
2023-05-11T09:24:33.300Z,27.13
2023-05-11T09:27:10.332Z,24.07
2023-05-11T09:29:37.086Z,29.00
2023-05-11T09:32:04.473Z,28.80
2023-05-11T09:34:31.076Z,27.57
2023-05-11T09:36:57.745Z,32.30
2023-05-11T09:39:38.292Z,27.17
2023-05-11T09:42:14.065Z,26.03
2023-05-11T09:44:41.724Z,29.20
2023-05-11T09:47:19.098Z,26.97
2023-05-11T09:49:47.500Z,35.40
2023-05-11T09:52:18.696Z,33.80
2023-05-11T09:54:47.708Z,29.77
2023-05-11T09:57:27.160Z,30.17
2023-05-11T09:59:54.759Z,35.30
2023-05-11T10:02:23.771Z,29.73
2023-05-11T10:04:52.386Z,33.73
2023-05-11T10:07:33.047Z,33.47
2023-05-11T10:10:05.193Z,35.63
2023-05-11T10:12:33.492Z,32.23
2023-05-11T10:15:08.698Z,28.87
2023-05-11T10:17:36.747Z,30.33
2023-05-11T10:20:05.258Z,27.50
2023-05-11T10:22:32.096Z,31.93
2023-05-11T10:24:59.591Z,35.33
2023-05-11T10:27:26.882Z,35.73
2023-05-11T10:29:53.654Z,34.07
2023-05-11T10:32:21.148Z,37.13
2023-05-11T10:34:50.112Z,35.47
2023-05-11T10:37:17.327Z,35.60
2023-05-11T10:39:47.733Z,33.53
2023-05-11T10:42:27.887Z,35.70
2023-05-11T10:45:12.660Z,30.70
2023-05-11T10:48:08.002Z,29.30
2023-05-11T10:51:09.842Z,37.13
2023-05-11T10:54:17.296Z,25.07
2023-05-11T10:56:58.067Z,22.10
2023-05-11T10:59:30.650Z,22.97
2023-05-11T11:01:59.904Z,21.33
2023-05-11T11:04:51.444Z,20.13
2023-05-11T11:07:19.509Z,25.47
2023-05-11T11:10:00.379Z,19.67
2023-05-11T11:12:29.450Z,24.20
2023-05-11T11:15:06.014Z,20.90
2023-05-11T11:17:34.782Z,21.93
2023-05-11T11:20:04.440Z,21.90
2023-05-11T11:22:41.296Z,23.17
2023-05-11T11:25:09.735Z,24.87
2023-05-11T11:27:45.551Z,22.67
2023-05-11T11:30:25.630Z,21.50
2023-05-11T11:32:53.359Z,17.60
2023-05-11T11:35:40.027Z,25.10
2023-05-11T11:38:08.815Z,21.77
2023-05-11T11:40:49.484Z,21.67
2023-05-11T11:43:24.418Z,19.97
2023-05-11T11:46:00.992Z,16.53
2023-05-11T11:48:36.485Z,18.83
2023-05-11T11:51:09.024Z,17.57
2023-05-11T11:53:40.687Z,18.30
2023-05-11T11:56:28.406Z,17.90
2023-05-11T11:58:59.951Z,17.40
2023-05-11T12:01:37.381Z,15.60
2023-05-11T12:04:22.085Z,16.33
2023-05-11T12:06:57.685Z,14.20
2023-05-11T12:09:24.722Z,15.03
2023-05-11T12:11:52.190Z,16.43
2023-05-11T12:14:19.952Z,19.50
2023-05-11T12:17:13.116Z,18.55
2023-05-11T12:19:40.164Z,14.85
2023-05-11T12:22:06.834Z,16.30
2023-05-11T12:24:33.585Z,19.65
2023-05-11T12:27:04.711Z,18.63
2023-05-11T12:29:32.038Z,15.45
2023-05-11T12:31:59.150Z,13.05
2023-05-11T12:34:25.763Z,15.27
2023-05-11T12:36:54.706Z,14.00
2023-05-11T12:39:23.789Z,17.80
2023-05-11T12:41:52.270Z,17.27
2023-05-11T12:44:20.680Z,16.98
2023-05-11T12:46:48.656Z,11.00
2023-05-11T12:49:24.699Z,11.65
2023-05-11T12:52:07.868Z,14.25
2023-05-11T12:54:39.947Z,12.40
2023-05-11T12:57:24.460Z,20.33
2023-05-11T13:00:12.393Z,15.05
2023-05-11T13:02:51.822Z,12.38
2023-05-11T13:05:23.179Z,12.40
2023-05-11T13:07:58.749Z,13.02
2023-05-11T13:10:28.062Z,14.05
2023-05-11T13:12:56.001Z,11.00
2023-05-11T13:15:24.456Z,14.52
2023-05-11T13:18:02.207Z,11.25
2023-05-11T13:20:35.445Z,10.38
2023-05-11T13:23:07.800Z,12.63
2023-05-11T13:25:54.899Z,11.55
2023-05-11T13:28:24.161Z,12.02
2023-05-11T13:30:51.779Z,13.77
2023-05-11T13:33:18.771Z,12.63
2023-05-11T13:35:46.131Z,14.10
2023-05-11T13:38:13.001Z,13.75
2023-05-11T13:40:39.815Z,12.82
2023-05-11T13:43:07.224Z,12.88
2023-05-11T13:45:33.827Z,12.05
2023-05-11T13:48:00.642Z,13.75
2023-05-11T13:50:27.556Z,11.65
2023-05-11T13:52:54.403Z,12.20
2023-05-11T13:55:21.500Z,12.20
2023-05-11T13:57:48.546Z,12.88
2023-05-11T14:00:15.865Z,14.95
2023-05-11T14:02:43.524Z,14.80
2023-05-11T14:05:10.141Z,11.95
2023-05-11T14:07:47.212Z,13.40
2023-05-11T14:10:15.428Z,12.68
2023-05-11T14:12:42.056Z,14.20
2023-05-11T14:15:09.194Z,10.02
2023-05-11T14:17:36.081Z,13.32
2023-05-11T14:20:03.685Z,13.02
2023-05-11T14:22:30.343Z,13.90
2023-05-11T14:24:56.864Z,11.95
2023-05-11T14:27:23.700Z,12.27
2023-05-11T14:29:51.982Z,13.07
2023-05-11T14:32:19.330Z,11.90
2023-05-11T14:34:46.282Z,12.73
2023-05-11T14:37:13.141Z,17.77
2023-05-11T14:39:41.192Z,12.98
2023-05-11T14:42:08.225Z,14.52
2023-05-11T14:44:34.916Z,12.88
2023-05-11T14:47:01.565Z,17.23
2023-05-11T14:49:28.150Z,10.02
2023-05-11T14:51:54.659Z,12.43
2023-05-11T14:54:21.178Z,11.73
2023-05-11T14:56:53.795Z,10.43
2023-05-11T14:59:26.719Z,11.18
2023-05-11T15:01:53.393Z,11.75
2023-05-11T15:04:20.317Z,9.85
2023-05-11T15:06:47.061Z,11.73
2023-05-11T15:09:13.661Z,11.75
2023-05-11T15:11:40.462Z,13.32
2023-05-11T15:14:07.236Z,11.95
2023-05-11T15:16:38.137Z,9.77
2023-05-11T15:19:05.863Z,13.25
2023-05-11T15:21:32.514Z,14.65
2023-05-11T15:23:59.159Z,13.73
2023-05-11T15:26:25.901Z,14.48
2023-05-11T15:28:52.480Z,11.57
2023-05-11T15:31:19.230Z,12.27
2023-05-11T15:33:45.808Z,11.38
2023-05-11T15:36:13.484Z,10.15
2023-05-11T15:38:40.843Z,13.90
2023-05-11T15:41:07.715Z,12.68
2023-05-11T15:43:34.356Z,11.50
2023-05-11T15:46:03.434Z,15.05
2023-05-11T15:48:30.272Z,13.30
2023-05-11T15:50:59.270Z,14.65
2023-05-11T15:53:25.943Z,13.63
2023-05-11T15:55:55.531Z,16.10
2023-05-11T15:58:22.601Z,17.50
2023-05-11T16:00:49.335Z,15.95
2023-05-11T16:03:16.382Z,13.50
2023-05-11T16:05:43.154Z,13.07
2023-05-11T16:08:09.738Z,12.93
2023-05-11T16:10:36.515Z,12.88
2023-05-11T16:13:03.123Z,11.77
2023-05-11T16:15:31.089Z,12.48
2023-05-11T16:17:58.439Z,13.77
2023-05-11T16:20:25.395Z,13.77
2023-05-11T16:22:52.135Z,13.35
2023-05-11T16:25:18.835Z,16.75
2023-05-11T16:27:45.391Z,15.32
2023-05-11T16:30:23.189Z,15.35
2023-05-11T16:32:52.356Z,16.55
2023-05-11T16:35:19.112Z,12.55
2023-05-11T16:37:47.496Z,18.63
2023-05-11T16:40:14.216Z,15.75
2023-05-11T16:42:40.793Z,14.20
2023-05-11T16:45:07.754Z,24.40
2023-05-11T16:47:34.630Z,17.90
2023-05-11T16:50:01.196Z,21.00
2023-05-11T16:52:27.743Z,17.35
2023-05-11T16:54:55.304Z,19.63
2023-05-11T16:57:24.936Z,25.00
2023-05-11T16:59:51.835Z,22.90
2023-05-11T17:02:19.650Z,20.33
2023-05-11T17:04:46.576Z,20.70
2023-05-11T17:07:14.720Z,25.13
2023-05-11T17:09:41.547Z,26.50
2023-05-11T17:12:10.279Z,24.67
2023-05-11T17:14:37.011Z,25.63
2023-05-11T17:17:07.903Z,22.93
2023-05-11T17:19:34.525Z,25.00
2023-05-11T17:22:01.133Z,27.50
2023-05-11T17:24:28.349Z,30.37
2023-05-11T17:26:54.953Z,26.37
2023-05-11T17:29:21.461Z,26.43
2023-05-11T17:31:50.261Z,28.30
2023-05-11T17:34:18.077Z,22.83
2023-05-11T17:36:45.004Z,27.70
2023-05-11T17:39:11.935Z,25.97
2023-05-11T17:41:38.712Z,27.57
2023-05-11T17:44:05.796Z,28.13
2023-05-11T17:46:32.478Z,27.80
2023-05-11T17:48:59.196Z,23.67
2023-05-11T17:51:25.745Z,31.47
2023-05-11T17:53:52.394Z,25.83
2023-05-11T17:56:19.584Z,25.13
2023-05-11T17:58:46.152Z,33.07
2023-05-11T18:01:13.987Z,30.10
2023-05-11T18:03:41.530Z,30.10
2023-05-11T18:06:08.436Z,37.40
2023-05-11T18:08:36.514Z,34.10
2023-05-11T18:11:03.461Z,32.13
2023-05-11T18:13:31.387Z,30.63
2023-05-11T18:16:00.732Z,37.83
2023-05-11T18:18:27.308Z,33.97
2023-05-11T18:20:54.062Z,34.30
2023-05-11T18:23:20.703Z,31.70
2023-05-11T18:25:48.275Z,35.97
2023-05-11T18:28:14.789Z,35.70
2023-05-11T18:30:41.380Z,41.80
2023-05-11T18:33:08.153Z,38.70
2023-05-11T18:35:34.958Z,37.10
2023-05-11T18:38:04.017Z,41.57
2023-05-11T18:40:30.541Z,40.17
2023-05-11T18:42:57.092Z,43.50
2023-05-11T18:45:23.848Z,42.37
2023-05-11T18:47:50.938Z,38.13
2023-05-11T18:50:17.649Z,39.60
2023-05-11T18:52:44.310Z,52.50
2023-05-11T18:55:10.864Z,56.00
2023-05-11T18:57:39.287Z,52.67
2023-05-11T19:00:06.935Z,50.00
2023-05-11T19:02:34.134Z,47.00
2023-05-11T19:05:01.216Z,46.77
2023-05-11T19:07:28.365Z,43.10
2023-05-11T19:09:55.182Z,42.57
2023-05-11T19:12:22.111Z,47.80
2023-05-11T19:14:48.640Z,52.33
2023-05-11T19:17:15.556Z,42.30
2023-05-11T19:19:42.094Z,46.80
2023-05-11T19:22:09.355Z,48.13
2023-05-11T19:24:36.069Z,51.33
2023-05-11T19:27:07.221Z,45.73
2023-05-11T19:29:34.766Z,50.93
2023-05-11T19:32:01.516Z,54.07
2023-05-11T19:34:28.297Z,54.57
2023-05-11T19:36:54.822Z,52.53
2023-05-11T19:39:21.430Z,59.27
2023-05-11T19:41:47.983Z,50.23
2023-05-11T19:44:14.494Z,52.23
2023-05-11T19:46:46.168Z,51.70
2023-05-11T19:49:13.867Z,56.00
2023-05-11T19:51:40.552Z,59.83
2023-05-11T19:54:07.197Z,56.77
2023-05-11T19:56:33.810Z,51.33
2023-05-11T19:59:01.371Z,58.77
2023-05-11T20:01:28.183Z,58.23
2023-05-11T20:03:54.888Z,54.57
2023-05-11T20:06:21.514Z,60.27
2023-05-11T20:08:48.889Z,55.50
2023-05-11T20:11:15.639Z,52.27
2023-05-11T20:13:43.824Z,54.07
2023-05-11T20:16:10.590Z,51.83
2023-05-11T20:18:37.610Z,60.37
2023-05-11T20:21:04.224Z,51.97
2023-05-11T20:23:30.804Z,56.60
2023-05-11T20:25:57.437Z,49.43
2023-05-11T20:28:27.059Z,54.70
2023-05-11T20:30:56.058Z,50.17
2023-05-11T20:35:53.459Z,51.07
2023-05-11T20:38:20.440Z,52.57
2023-05-11T20:40:47.192Z,58.63
2023-05-11T20:43:14.904Z,58.40
2023-05-11T20:45:42.177Z,54.77
2023-05-11T20:48:08.915Z,54.40
2023-05-11T20:50:35.596Z,49.50
2023-05-11T20:53:02.416Z,52.27
2023-05-11T20:55:28.991Z,52.87
2023-05-11T20:57:55.640Z,63.20
2023-05-11T21:00:22.548Z,61.63
2023-05-11T21:02:49.749Z,56.93
2023-05-11T21:05:16.442Z,59.90
2023-05-11T21:07:42.984Z,67.53
2023-05-11T21:10:12.449Z,64.93
2023-05-11T21:12:39.109Z,65.53
2023-05-11T21:15:07.189Z,60.10
2023-05-11T21:17:36.528Z,69.20
2023-05-11T21:20:05.111Z,99.97
2023-05-11T21:22:38.339Z,69.23
2023-05-11T21:25:05.777Z,76.00
2023-05-11T21:27:32.373Z,76.57
2023-05-11T21:29:58.914Z,73.87
2023-05-11T21:32:25.605Z,78.43
2023-05-11T21:34:52.430Z,83.10
2023-05-11T21:37:20.312Z,85.00
2023-05-11T21:39:50.337Z,85.70
2023-05-11T21:42:17.108Z,78.77
2023-05-11T21:44:43.676Z,69.17
2023-05-11T21:47:10.708Z,77.83
2023-05-11T21:49:37.269Z,77.53
2023-05-11T21:52:03.996Z,82.27
2023-05-11T21:54:30.608Z,96.30
2023-05-11T21:56:57.152Z,91.13
2023-05-11T21:59:26.558Z,86.53
2023-05-11T22:01:56.981Z,90.60
2023-05-11T22:04:26.086Z,87.17
2023-05-11T22:06:52.777Z,96.67
2023-05-11T22:09:19.291Z,92.37
2023-05-11T22:11:45.923Z,98.53
2023-05-11T22:14:12.454Z,101.73
2023-05-11T22:16:39.008Z,104.80
2023-05-11T22:19:06.022Z,110.60
2023-05-11T22:21:32.605Z,95.10
2023-05-11T22:23:59.108Z,101.40
2023-05-11T22:26:26.555Z,97.90
2023-05-11T22:28:53.111Z,102.97
2023-05-11T22:31:19.672Z,95.03
2023-05-11T22:33:46.212Z,98.90
2023-05-11T22:36:12.732Z,111.57
2023-05-11T22:38:39.252Z,100.10
2023-05-11T22:41:06.281Z,96.37
2023-05-11T22:43:32.786Z,93.53
2023-05-11T22:45:59.529Z,99.30
2023-05-11T22:48:26.091Z,105.70
2023-05-11T22:50:53.631Z,105.93
2023-05-11T22:53:20.863Z,94.57
2023-05-11T22:55:47.599Z,96.77
2023-05-11T22:58:14.265Z,106.97
2023-05-11T23:00:40.777Z,95.37
2023-05-11T23:03:08.086Z,100.50
2023-05-11T23:05:35.275Z,97.77
2023-05-11T23:08:01.772Z,96.90
2023-05-11T23:10:28.627Z,109.50
2023-05-11T23:12:55.971Z,105.87
2023-05-11T23:15:22.476Z,103.17
2023-05-11T23:17:49.199Z,113.40
2023-05-11T23:20:16.448Z,112.67
2023-05-11T23:22:43.320Z,116.90
2023-05-11T23:25:10.364Z,113.83
2023-05-11T23:27:36.865Z,119.13
2023-05-11T23:30:03.832Z,114.87
2023-05-11T23:32:30.436Z,117.53
2023-05-11T23:34:56.953Z,120.10
2023-05-11T23:37:23.674Z,110.10
2023-05-11T23:39:50.212Z,115.17
2023-05-11T23:42:16.748Z,126.70
2023-05-11T23:44:43.256Z,128.80
2023-05-11T23:47:10.144Z,122.47
2023-05-11T23:49:36.735Z,127.33
2023-05-11T23:52:03.413Z,144.50
2023-05-11T23:54:29.917Z,126.40
2023-05-11T23:56:56.448Z,119.90
2023-05-11T23:59:22.976Z,115.57
